Terminal Aerodrome Forecast
Issued by NWS Bismarck, ND

Home | Current Version | Previous Version | Text Only | Print | Product List | Glossary Off
Versions: 1 2 3 4 5 6 7 8 9 10 11 12 13 14 15 16 17 18 19 20

000
FTUS43 KBIS 271700
TAFISN
TAF
KISN 271740Z 2718/2818 14007KT 3SM -SN OVC025
     FM272000 15008KT 3/4SM -SN OVC011
     FM272100 16013KT 2SM -FZRASG OVC008
     FM280100 09008KT P6SM SCT015 BKN030 OVC070
     FM280900 07010KT 6SM -SN BR OVC025=

USA.gov is the U.S. government's official web portal to all federal, state and local government web resources and services.